sensor_id;sensor_type;location;lat;lon;timestamp;pressure;altitude;pressure_sealevel;temperature;humidity
56038;BME280;41907;47.848;9.000;2023-05-23T00:00:18;95587.09;;;15.43;100.00
56038;BME280;41907;47.848;9.000;2023-05-23T00:02:43;95587.56;;;15.33;100.00
56038;BME280;41907;47.848;9.000;2023-05-23T00:05:09;95585.28;;;15.07;100.00
56038;BME280;41907;47.848;9.000;2023-05-23T00:07:34;95587.22;;;14.94;100.00
56038;BME280;41907;47.848;9.000;2023-05-23T00:09:59;95588.50;;;15.12;100.00
56038;BME280;41907;47.848;9.000;2023-05-23T00:12:24;95590.41;;;15.12;100.00
56038;BME280;41907;47.848;9.000;2023-05-23T00:14:51;95590.78;;;14.98;100.00
56038;BME280;41907;47.848;9.000;2023-05-23T00:17:17;95589.91;;;14.94;100.00
56038;BME280;41907;47.848;9.000;2023-05-23T00:19:42;95595.91;;;15.03;100.00
56038;BME280;41907;47.848;9.000;2023-05-23T00:22:10;95586.75;;;15.04;100.00
56038;BME280;41907;47.848;9.000;2023-05-23T00:24:36;95591.34;;;15.04;100.00
56038;BME280;41907;47.848;9.000;2023-05-23T00:27:01;95585.50;;;15.02;100.00
56038;BME280;41907;47.848;9.000;2023-05-23T00:29:26;95579.81;;;15.03;100.00
56038;BME280;41907;47.848;9.000;2023-05-23T00:31:51;95590.78;;;14.98;100.00
56038;BME280;41907;47.848;9.000;2023-05-23T00:34:17;95586.75;;;15.04;100.00
56038;BME280;41907;47.848;9.000;2023-05-23T00:36:42;95591.25;;;14.88;100.00
56038;BME280;41907;47.848;9.000;2023-05-23T00:39:08;95593.38;;;14.95;100.00
56038;BME280;41907;47.848;9.000;2023-05-23T00:41:33;95591.59;;;14.86;100.00
56038;BME280;41907;47.848;9.000;2023-05-23T00:44:00;95582.19;;;14.93;100.00
56038;BME280;41907;47.848;9.000;2023-05-23T00:46:25;95583.28;;;14.92;100.00
56038;BME280;41907;47.848;9.000;2023-05-23T00:48:51;95589.22;;;14.97;100.00
56038;BME280;41907;47.848;9.000;2023-05-23T00:51:17;95580.06;;;14.98;100.00
56038;BME280;41907;47.848;9.000;2023-05-23T00:53:43;95581.63;;;14.87;100.00
56038;BME280;41907;47.848;9.000;2023-05-23T00:56:08;95591.94;;;14.73;100.00
56038;BME280;41907;47.848;9.000;2023-05-23T00:58:33;95597.00;;;14.62;100.00
56038;BME280;41907;47.848;9.000;2023-05-23T01:00:59;95594.63;;;14.61;100.00
56038;BME280;41907;47.848;9.000;2023-05-23T01:03:24;95595.97;;;14.55;100.00
56038;BME280;41907;47.848;9.000;2023-05-23T01:05:53;95593.72;;;14.57;100.00
56038;BME280;41907;47.848;9.000;2023-05-23T01:08:18;95596.88;;;14.59;100.00
56038;BME280;41907;47.848;9.000;2023-05-23T01:10:43;95608.25;;;14.56;100.00
56038;BME280;41907;47.848;9.000;2023-05-23T01:13:14;95597.31;;;14.48;100.00
56038;BME280;41907;47.848;9.000;2023-05-23T01:18:12;95597.94;;;14.21;100.00
56038;BME280;41907;47.848;9.000;2023-05-23T01:20:44;95603.28;;;14.09;100.00
56038;BME280;41907;47.848;9.000;2023-05-23T01:28:26;95607.75;;;14.17;100.00
56038;BME280;41907;47.848;9.000;2023-05-23T01:30:51;95601.16;;;14.27;100.00
56038;BME280;41907;47.848;9.000;2023-05-23T01:33:18;95603.66;;;14.32;100.00
56038;BME280;41907;47.848;9.000;2023-05-23T01:35:44;95601.53;;;14.37;100.00
56038;BME280;41907;47.848;9.000;2023-05-23T01:38:10;95599.94;;;14.36;100.00
56038;BME280;41907;47.848;9.000;2023-05-23T01:40:35;95605.53;;;14.31;100.00
56038;BME280;41907;47.848;9.000;2023-05-23T01:43:00;95594.66;;;14.15;100.00
56038;BME280;41907;47.848;9.000;2023-05-23T01:45:27;95600.81;;;14.16;100.00
56038;BME280;41907;47.848;9.000;2023-05-23T01:47:53;95598.81;;;14.13;100.00
56038;BME280;41907;47.848;9.000;2023-05-23T01:50:19;95594.66;;;14.15;100.00
56038;BME280;41907;47.848;9.000;2023-05-23T01:52:45;95592.88;;;13.95;100.00
56038;BME280;41907;47.848;9.000;2023-05-23T01:55:10;95601.44;;;13.89;100.00
56038;BME280;41907;47.848;9.000;2023-05-23T01:57:38;95597.72;;;13.81;100.00
56038;BME280;41907;47.848;9.000;2023-05-23T02:00:04;95600.41;;;13.81;100.00
56038;BME280;41907;47.848;9.000;2023-05-23T02:02:30;95599.38;;;13.73;100.00
56038;BME280;41907;47.848;9.000;2023-05-23T02:04:56;95603.88;;;13.82;100.00
56038;BME280;41907;47.848;9.000;2023-05-23T02:07:22;95601.84;;;13.78;100.00
56038;BME280;41907;47.848;9.000;2023-05-23T02:09:47;95598.75;;;13.89;100.00
56038;BME280;41907;47.848;9.000;2023-05-23T02:12:13;95607.88;;;13.75;100.00
56038;BME280;41907;47.848;9.000;2023-05-23T02:14:38;95609.53;;;13.68;100.00
56038;BME280;41907;47.848;9.000;2023-05-23T02:17:03;95610.44;;;13.51;100.00
56038;BME280;41907;47.848;9.000;2023-05-23T02:19:29;95613.28;;;13.55;100.00
56038;BME280;41907;47.848;9.000;2023-05-23T02:21:54;95616.28;;;13.53;100.00
56038;BME280;41907;47.848;9.000;2023-05-23T02:24:19;95609.34;;;13.52;100.00
56038;BME280;41907;47.848;9.000;2023-05-23T02:26:45;95614.84;;;13.56;100.00
56038;BME280;41907;47.848;9.000;2023-05-23T02:29:10;95619.34;;;13.64;100.00
56038;BME280;41907;47.848;9.000;2023-05-23T02:31:35;95621.22;;;13.63;100.00
56038;BME280;41907;47.848;9.000;2023-05-23T02:34:00;95631.41;;;13.70;100.00
56038;BME280;41907;47.848;9.000;2023-05-23T02:36:25;95629.19;;;13.72;100.00
56038;BME280;41907;47.848;9.000;2023-05-23T02:38:51;95626.50;;;13.72;100.00
56038;BME280;41907;47.848;9.000;2023-05-23T02:41:16;95627.25;;;13.60;100.00
56038;BME280;41907;47.848;9.000;2023-05-23T02:43:43;95626.44;;;13.60;100.00
56038;BME280;41907;47.848;9.000;2023-05-23T02:46:08;95629.66;;;13.53;100.00
56038;BME280;41907;47.848;9.000;2023-05-23T02:48:34;95642.03;;;13.46;100.00
56038;BME280;41907;47.848;9.000;2023-05-23T02:50:59;95638.75;;;13.40;100.00
56038;BME280;41907;47.848;9.000;2023-05-23T02:53:24;95631.56;;;13.53;100.00
56038;BME280;41907;47.848;9.000;2023-05-23T02:55:50;95637.56;;;13.50;100.00
56038;BME280;41907;47.848;9.000;2023-05-23T02:58:15;95635.69;;;13.50;100.00
56038;BME280;41907;47.848;9.000;2023-05-23T03:00:40;95632.69;;;13.52;100.00
56038;BME280;41907;47.848;9.000;2023-05-23T03:03:09;95633.72;;;13.59;100.00
56038;BME280;41907;47.848;9.000;2023-05-23T03:05:35;95626.66;;;13.55;100.00
56038;BME280;41907;47.848;9.000;2023-05-23T03:08:01;95637.38;;;13.55;100.00
56038;BME280;41907;47.848;9.000;2023-05-23T03:10:26;95631.47;;;13.49;100.00
56038;BME280;41907;47.848;9.000;2023-05-23T03:12:51;95629.50;;;13.58;100.00
56038;BME280;41907;47.848;9.000;2023-05-23T03:15:17;95624.91;;;13.59;100.00
56038;BME280;41907;47.848;9.000;2023-05-23T03:17:42;95624.69;;;13.64;100.00
56038;BME280;41907;47.848;9.000;2023-05-23T03:20:07;95627.13;;;13.57;100.00
56038;BME280;41907;47.848;9.000;2023-05-23T03:22:34;95627.22;;;13.48;100.00
56038;BME280;41907;47.848;9.000;2023-05-23T03:24:59;95624.44;;;13.57;100.00
56038;BME280;41907;47.848;9.000;2023-05-23T03:27:24;95634.94;;;13.62;100.00
56038;BME280;41907;47.848;9.000;2023-05-23T03:29:50;95639.06;;;13.59;100.00
56038;BME280;41907;47.848;9.000;2023-05-23T03:32:15;95635.69;;;13.50;100.00
56038;BME280;41907;47.848;9.000;2023-05-23T03:34:40;95638.72;;;13.49;100.00
56038;BME280;41907;47.848;9.000;2023-05-23T03:37:05;95637.06;;;13.35;100.00
56038;BME280;41907;47.848;9.000;2023-05-23T03:39:31;95643.22;;;13.36;100.00
56038;BME280;41907;47.848;9.000;2023-05-23T03:41:56;95646.34;;;13.38;100.00
56038;BME280;41907;47.848;9.000;2023-05-23T03:44:21;95650.13;;;13.37;100.00
56038;BME280;41907;47.848;9.000;2023-05-23T03:46:46;95657.25;;;13.33;100.00
56038;BME280;41907;47.848;9.000;2023-05-23T03:49:12;95655.19;;;13.38;100.00
56038;BME280;41907;47.848;9.000;2023-05-23T03:51:37;95651.81;;;13.41;100.00
56038;BME280;41907;47.848;9.000;2023-05-23T03:54:02;95647.78;;;13.35;100.00
56038;BME280;41907;47.848;9.000;2023-05-23T03:56:27;95654.44;;;13.50;100.00
56038;BME280;41907;47.848;9.000;2023-05-23T03:58:53;95658.09;;;13.66;100.00
56038;BME280;41907;47.848;9.000;2023-05-23T04:01:18;95652.22;;;13.73;100.00
56038;BME280;41907;47.848;9.000;2023-05-23T04:03:43;95661.03;;;13.73;100.00
56038;BME280;41907;47.848;9.000;2023-05-23T04:06:08;95660.56;;;13.71;100.00
56038;BME280;41907;47.848;9.000;2023-05-23T04:08:34;95658.69;;;13.72;100.00
56038;BME280;41907;47.848;9.000;2023-05-23T04:10:59;95660.91;;;13.70;100.00
56038;BME280;41907;47.848;9.000;2023-05-23T04:13:26;95670.75;;;13.78;100.00
56038;BME280;41907;47.848;9.000;2023-05-23T04:15:51;95668.03;;;13.87;100.00
56038;BME280;41907;47.848;9.000;2023-05-23T04:18:16;95668.78;;;13.87;100.00
56038;BME280;41907;47.848;9.000;2023-05-23T04:20:42;95669.44;;;14.05;100.00
56038;BME280;41907;47.848;9.000;2023-05-23T04:23:07;95678.16;;;14.14;100.00
56038;BME280;41907;47.848;9.000;2023-05-23T04:25:32;95671.31;;;14.04;100.00
56038;BME280;41907;47.848;9.000;2023-05-23T04:27:58;95679.00;;;13.94;100.00
56038;BME280;41907;47.848;9.000;2023-05-23T04:30:23;95678.28;;;13.85;100.00
56038;BME280;41907;47.848;9.000;2023-05-23T04:32:49;95677.09;;;13.94;100.00
56038;BME280;41907;47.848;9.000;2023-05-23T04:35:14;95679.31;;;13.92;100.00
56038;BME280;41907;47.848;9.000;2023-05-23T04:37:39;95678.78;;;13.99;100.00
56038;BME280;41907;47.848;9.000;2023-05-23T04:40:06;95686.22;;;14.14;100.00
56038;BME280;41907;47.848;9.000;2023-05-23T04:42:32;95686.22;;;14.26;100.00
56038;BME280;41907;47.848;9.000;2023-05-23T04:44:57;95679.41;;;14.29;100.00
56038;BME280;41907;47.848;9.000;2023-05-23T04:47:23;95677.97;;;14.31;100.00
56038;BME280;41907;47.848;9.000;2023-05-23T04:49:48;95671.53;;;14.44;100.00
56038;BME280;41907;47.848;9.000;2023-05-23T04:52:14;95674.69;;;14.46;100.00
56038;BME280;41907;47.848;9.000;2023-05-23T04:54:43;95678.47;;;14.45;100.00
56038;BME280;41907;47.848;9.000;2023-05-23T04:57:09;95684.78;;;14.62;100.00
56038;BME280;41907;47.848;9.000;2023-05-23T04:59:34;95691.16;;;14.69;100.00
56038;BME280;41907;47.848;9.000;2023-05-23T05:01:59;95696.28;;;14.74;100.00
56038;BME280;41907;47.848;9.000;2023-05-23T05:04:25;95688.13;;;14.83;100.00
56038;BME280;41907;47.848;9.000;2023-05-23T05:06:50;95692.50;;;14.75;100.00
56038;BME280;41907;47.848;9.000;2023-05-23T05:09:16;95694.28;;;14.83;100.00
56038;BME280;41907;47.848;9.000;2023-05-23T05:11:42;95693.97;;;14.85;100.00
56038;BME280;41907;47.848;9.000;2023-05-23T05:14:07;95701.69;;;14.86;100.00
56038;BME280;41907;47.848;9.000;2023-05-23T05:16:32;95702.91;;;14.89;100.00
56038;BME280;41907;47.848;9.000;2023-05-23T05:18:57;95704.25;;;15.07;100.00
56038;BME280;41907;47.848;9.000;2023-05-23T05:21:22;95706.38;;;15.14;100.00
56038;BME280;41907;47.848;9.000;2023-05-23T05:23:48;95715.09;;;15.23;100.00
56038;BME280;41907;47.848;9.000;2023-05-23T05:26:13;95713.66;;;15.25;100.00
56038;BME280;41907;47.848;9.000;2023-05-23T05:28:38;95710.97;;;15.25;100.00
56038;BME280;41907;47.848;9.000;2023-05-23T05:31:05;95720.47;;;15.23;100.00
56038;BME280;41907;47.848;9.000;2023-05-23T05:33:30;95717.25;;;15.17;100.00
56038;BME280;41907;47.848;9.000;2023-05-23T05:36:00;95714.78;;;15.24;100.00
56038;BME280;41907;47.848;9.000;2023-05-23T05:38:26;95712.28;;;15.32;100.00
56038;BME280;41907;47.848;9.000;2023-05-23T05:40:51;95723.50;;;15.46;100.00
56038;BME280;41907;47.848;9.000;2023-05-23T05:43:16;95720.78;;;15.58;100.00
56038;BME280;41907;47.848;9.000;2023-05-23T05:45:41;95722.69;;;15.57;100.00
56038;BME280;41907;47.848;9.000;2023-05-23T05:48:07;95725.06;;;15.59;100.00
56038;BME280;41907;47.848;9.000;2023-05-23T05:50:32;95723.13;;;15.72;100.00
56038;BME280;41907;47.848;9.000;2023-05-23T05:52:57;95723.97;;;15.88;100.00
56038;BME280;41907;47.848;9.000;2023-05-23T05:55:22;95719.69;;;15.99;100.00
56038;BME280;41907;47.848;9.000;2023-05-23T05:57:48;95714.50;;;16.06;100.00
56038;BME280;41907;47.848;9.000;2023-05-23T06:00:13;95711.41;;;16.20;100.00
56038;BME280;41907;47.848;9.000;2023-05-23T06:02:39;95714.75;;;16.29;100.00
56038;BME280;41907;47.848;9.000;2023-05-23T06:05:05;95713.47;;;16.38;100.00
56038;BME280;41907;47.848;9.000;2023-05-23T06:07:32;95716.59;;;16.41;100.00
56038;BME280;41907;47.848;9.000;2023-05-23T06:09:57;95717.63;;;16.52;100.00
56038;BME280;41907;47.848;9.000;2023-05-23T06:12:23;95715.50;;;16.57;100.00
56038;BME280;41907;47.848;9.000;2023-05-23T06:14:48;95725.47;;;16.57;100.00
56038;BME280;41907;47.848;9.000;2023-05-23T06:17:13;95724.81;;;16.32;100.00
56038;BME280;41907;47.848;9.000;2023-05-23T06:19:38;95721.19;;;16.40;100.00
56038;BME280;41907;47.848;9.000;2023-05-23T06:22:04;95723.63;;;16.61;100.00
56038;BME280;41907;47.848;9.000;2023-05-23T06:24:29;95725.94;;;16.74;100.00
56038;BME280;41907;47.848;9.000;2023-05-23T06:26:54;95732.84;;;16.88;100.00
56038;BME280;41907;47.848;9.000;2023-05-23T06:29:19;95727.28;;;16.96;100.00
56038;BME280;41907;47.848;9.000;2023-05-23T06:31:45;95733.00;;;16.95;100.00
56038;BME280;41907;47.848;9.000;2023-05-23T06:34:10;95727.28;;;16.96;100.00
56038;BME280;41907;47.848;9.000;2023-05-23T06:36:35;95720.97;;;17.08;100.00
56038;BME280;41907;47.848;9.000;2023-05-23T06:39:00;95724.03;;;17.22;100.00
56038;BME280;41907;47.848;9.000;2023-05-23T06:41:26;95734.19;;;17.29;100.00
56038;BME280;41907;47.848;9.000;2023-05-23T06:43:51;95731.16;;;17.30;100.00
56038;BME280;41907;47.848;9.000;2023-05-23T06:46:16;95734.28;;;17.32;100.00
56038;BME280;41907;47.848;9.000;2023-05-23T06:48:42;95735.91;;;17.37;100.00
56038;BME280;41907;47.848;9.000;2023-05-23T06:51:07;95737.13;;;17.39;100.00
56038;BME280;41907;47.848;9.000;2023-05-23T06:53:32;95729.19;;;17.46;100.00
56038;BME280;41907;47.848;9.000;2023-05-23T06:55:57;95735.19;;;17.56;100.00
56038;BME280;41907;47.848;9.000;2023-05-23T06:58:23;95736.97;;;17.64;100.00
56038;BME280;41907;47.848;9.000;2023-05-23T07:00:49;95742.56;;;17.74;100.00
56038;BME280;41907;47.848;9.000;2023-05-23T07:03:14;95735.28;;;17.94;100.00
56038;BME280;41907;47.848;9.000;2023-05-23T07:05:40;95735.44;;;18.20;100.00
56038;BME280;41907;47.848;9.000;2023-05-23T07:08:05;95736.38;;;18.51;100.00
56038;BME280;41907;47.848;9.000;2023-05-23T07:10:31;95733.50;;;18.82;100.00
56038;BME280;41907;47.848;9.000;2023-05-23T07:12:58;95731.22;;;19.07;98.59
56038;BME280;41907;47.848;9.000;2023-05-23T07:15:23;95739.81;;;19.13;97.05
56038;BME280;41907;47.848;9.000;2023-05-23T07:17:49;95736.44;;;19.19;96.79
56038;BME280;41907;47.848;9.000;2023-05-23T07:20:14;95734.53;;;19.46;96.79
56038;BME280;41907;47.848;9.000;2023-05-23T07:22:39;95736.31;;;20.18;93.94
56038;BME280;41907;47.848;9.000;2023-05-23T07:25:05;95739.56;;;20.64;90.92
56038;BME280;41907;47.848;9.000;2023-05-23T07:27:30;95740.06;;;20.76;90.08
56038;BME280;41907;47.848;9.000;2023-05-23T07:29:55;95738.28;;;20.91;87.60
56038;BME280;41907;47.848;9.000;2023-05-23T07:32:21;95742.66;;;21.03;86.63
56038;BME280;41907;47.848;9.000;2023-05-23T07:34:46;95745.38;;;21.03;84.85
56038;BME280;41907;47.848;9.000;2023-05-23T07:37:12;95748.88;;;21.07;86.63
56038;BME280;41907;47.848;9.000;2023-05-23T07:39:37;95744.28;;;21.59;85.37
56038;BME280;41907;47.848;9.000;2023-05-23T07:42:02;95744.31;;;22.35;81.30
56038;BME280;41907;47.848;9.000;2023-05-23T07:44:27;95746.84;;;22.93;78.09
56038;BME280;41907;47.848;9.000;2023-05-23T07:46:53;95737.53;;;23.01;76.71
56038;BME280;41907;47.848;9.000;2023-05-23T07:49:18;95735.50;;;22.62;78.20
56038;BME280;41907;47.848;9.000;2023-05-23T07:51:43;95744.53;;;23.09;74.79
56038;BME280;41907;47.848;9.000;2023-05-23T07:54:08;95733.25;;;23.60;72.52
56038;BME280;41907;47.848;9.000;2023-05-23T07:56:33;95737.09;;;23.88;73.53
56038;BME280;41907;47.848;9.000;2023-05-23T07:58:59;95738.31;;;23.76;72.26
56038;BME280;41907;47.848;9.000;2023-05-23T08:01:24;95736.38;;;23.59;68.76
56038;BME280;41907;47.848;9.000;2023-05-23T08:03:49;95739.84;;;23.02;71.49
56038;BME280;41907;47.848;9.000;2023-05-23T08:06:14;95748.72;;;22.71;75.56
56038;BME280;41907;47.848;9.000;2023-05-23T08:08:40;95746.75;;;22.64;79.04
56038;BME280;41907;47.848;9.000;2023-05-23T08:11:05;95740.91;;;22.62;77.04
56038;BME280;41907;47.848;9.000;2023-05-23T08:13:31;95742.09;;;22.61;77.47
56038;BME280;41907;47.848;9.000;2023-05-23T08:15:56;95741.81;;;23.16;76.23
56038;BME280;41907;47.848;9.000;2023-05-23T08:18:21;95755.41;;;23.02;75.04
56038;BME280;41907;47.848;9.000;2023-05-23T08:20:47;95744.41;;;22.63;76.33
56038;BME280;41907;47.848;9.000;2023-05-23T08:23:12;95753.63;;;22.30;77.60
56038;BME280;41907;47.848;9.000;2023-05-23T08:25:38;95743.28;;;21.84;78.63
56038;BME280;41907;47.848;9.000;2023-05-23T08:28:03;95748.53;;;21.56;81.52
56038;BME280;41907;47.848;9.000;2023-05-23T08:30:28;95754.88;;;21.23;84.95
56038;BME280;41907;47.848;9.000;2023-05-23T08:32:54;95758.16;;;21.02;85.25
56038;BME280;41907;47.848;9.000;2023-05-23T08:35:20;95754.88;;;20.83;88.42
56038;BME280;41907;47.848;9.000;2023-05-23T08:37:46;95749.28;;;20.65;89.80
56038;BME280;41907;47.848;9.000;2023-05-23T08:40:20;95752.72;;;20.62;90.66
56038;BME280;41907;47.848;9.000;2023-05-23T08:42:46;95744.53;;;20.58;90.93
56038;BME280;41907;47.848;9.000;2023-05-23T08:45:12;95755.75;;;20.57;89.01
56038;BME280;41907;47.848;9.000;2023-05-23T08:47:38;95761.75;;;20.73;90.57
56038;BME280;41907;47.848;9.000;2023-05-23T08:50:07;95760.59;;;20.77;87.96
56038;BME280;41907;47.848;9.000;2023-05-23T08:52:34;95757.69;;;20.93;89.54
56038;BME280;41907;47.848;9.000;2023-05-23T08:55:01;95758.88;;;21.40;86.31
56038;BME280;41907;47.848;9.000;2023-05-23T08:57:27;95767.72;;;21.84;83.04
56038;BME280;41907;47.848;9.000;2023-05-23T08:59:54;95768.50;;;22.61;80.34
56038;BME280;41907;47.848;9.000;2023-05-23T09:02:20;95766.81;;;22.24;78.48
56038;BME280;41907;47.848;9.000;2023-05-23T09:04:46;95763.19;;;23.25;73.12
56038;BME280;41907;47.848;9.000;2023-05-23T09:07:11;95756.50;;;24.11;72.17
56038;BME280;41907;47.848;9.000;2023-05-23T09:09:36;95767.88;;;23.21;69.21
56038;BME280;41907;47.848;9.000;2023-05-23T09:12:02;95750.31;;;23.89;66.75
56038;BME280;41907;47.848;9.000;2023-05-23T09:14:27;95761.03;;;24.57;67.67
56038;BME280;41907;47.848;9.000;2023-05-23T09:16:59;95759.50;;;24.45;65.35
56038;BME280;41907;47.848;9.000;2023-05-23T09:19:24;95761.06;;;24.53;64.12
56038;BME280;41907;47.848;9.000;2023-05-23T09:21:50;95763.03;;;24.38;63.87
56038;BME280;41907;47.848;9.000;2023-05-23T09:24:17;95757.63;;;24.28;66.08
56038;BME280;41907;47.848;9.000;2023-05-23T09:26:45;95759.63;;;24.06;65.90
56038;BME280;41907;47.848;9.000;2023-05-23T09:29:10;95770.22;;;23.58;65.97
56038;BME280;41907;47.848;9.000;2023-05-23T09:31:36;95765.91;;;23.21;64.91
56038;BME280;41907;47.848;9.000;2023-05-23T09:34:01;95768.13;;;22.73;68.88
56038;BME280;41907;47.848;9.000;2023-05-23T09:36:27;95764.97;;;22.53;72.11
56038;BME280;41907;47.848;9.000;2023-05-23T09:39:00;95761.78;;;22.26;72.84
56038;BME280;41907;47.848;9.000;2023-05-23T09:41:28;95762.94;;;22.33;73.63
56038;BME280;41907;47.848;9.000;2023-05-23T09:43:54;95765.56;;;22.11;76.36
56038;BME280;41907;47.848;9.000;2023-05-23T09:46:21;95768.25;;;22.04;79.48
56038;BME280;41907;47.848;9.000;2023-05-23T09:48:46;95766.28;;;21.98;81.02
56038;BME280;41907;47.848;9.000;2023-05-23T09:51:12;95763.09;;;21.92;81.04
56038;BME280;41907;47.848;9.000;2023-05-23T09:53:37;95763.59;;;22.05;82.38
56038;BME280;41907;47.848;9.000;2023-05-23T09:56:03;95767.97;;;22.31;81.55
56038;BME280;41907;47.848;9.000;2023-05-23T09:58:29;95763.03;;;22.57;79.89
56038;BME280;41907;47.848;9.000;2023-05-23T10:00:55;95758.88;;;22.95;74.75
56038;BME280;41907;47.848;9.000;2023-05-23T10:03:26;95753.09;;;23.40;71.23
56038;BME280;41907;47.848;9.000;2023-05-23T10:05:56;95760.47;;;23.46;69.40
56038;BME280;41907;47.848;9.000;2023-05-23T10:08:24;95758.94;;;23.52;70.18
56038;BME280;41907;47.848;9.000;2023-05-23T10:13:25;95761.25;;;23.25;77.28
56038;BME280;41907;47.848;9.000;2023-05-23T10:15:53;95760.75;;;22.70;83.15
56038;BME280;41907;47.848;9.000;2023-05-23T10:18:22;95761.56;;;21.95;86.39
56038;BME280;41907;47.848;9.000;2023-05-23T10:20:50;95756.25;;;21.50;93.84
56038;BME280;41907;47.848;9.000;2023-05-23T10:23:18;95758.47;;;21.38;95.90
56038;BME280;41907;47.848;9.000;2023-05-23T10:25:43;95763.41;;;21.25;95.49
56038;BME280;41907;47.848;9.000;2023-05-23T10:28:09;95762.00;;;21.45;98.91
56038;BME280;41907;47.848;9.000;2023-05-23T10:30:35;95742.97;;;21.38;97.56
56038;BME280;41907;47.848;9.000;2023-05-23T10:33:01;95742.31;;;21.56;88.70
56038;BME280;41907;47.848;9.000;2023-05-23T10:38:08;95747.22;;;23.06;90.67
56038;BME280;41907;47.848;9.000;2023-05-23T10:43:06;95735.19;;;22.92;76.48
56038;BME280;41907;47.848;9.000;2023-05-23T10:45:40;95739.75;;;22.60;75.38
56038;BME280;41907;47.848;9.000;2023-05-23T10:48:22;95739.44;;;22.86;78.39
56038;BME280;41907;47.848;9.000;2023-05-23T10:51:06;95728.47;;;22.51;79.01
56038;BME280;41907;47.848;9.000;2023-05-23T10:53:33;95728.84;;;22.49;81.59
56038;BME280;41907;47.848;9.000;2023-05-23T10:55:59;95726.47;;;22.34;80.32
56038;BME280;41907;47.848;9.000;2023-05-23T10:58:24;95726.34;;;22.09;80.26
56038;BME280;41907;47.848;9.000;2023-05-23T11:00:53;95735.28;;;22.09;78.22
56038;BME280;41907;47.848;9.000;2023-05-23T11:03:28;95729.81;;;21.99;79.96
56038;BME280;41907;47.848;9.000;2023-05-23T11:05:54;95739.47;;;21.38;82.51
56038;BME280;41907;47.848;9.000;2023-05-23T11:08:19;95742.16;;;21.31;88.02
56038;BME280;41907;47.848;9.000;2023-05-23T11:11:00;95734.31;;;20.82;88.90
56038;BME280;41907;47.848;9.000;2023-05-23T11:14:11;95732.19;;;20.61;86.10
56038;BME280;41907;47.848;9.000;2023-05-23T11:18:49;95719.25;;;20.14;93.32
56038;BME280;41907;47.848;9.000;2023-05-23T11:21:14;95723.34;;;20.34;93.90
56038;BME280;41907;47.848;9.000;2023-05-23T11:23:40;95715.03;;;20.50;91.27
56038;BME280;41907;47.848;9.000;2023-05-23T11:26:12;95721.22;;;20.17;95.13
56038;BME280;41907;47.848;9.000;2023-05-23T11:28:54;95720.84;;;20.18;90.36
56038;BME280;41907;47.848;9.000;2023-05-23T11:31:19;95723.13;;;20.46;89.51
56038;BME280;41907;47.848;9.000;2023-05-23T11:33:45;95726.31;;;20.55;93.26
56038;BME280;41907;47.848;9.000;2023-05-23T11:36:10;95720.16;;;20.58;95.89
56038;BME280;41907;47.848;9.000;2023-05-23T11:38:35;95722.66;;;20.77;97.63
56038;BME280;41907;47.848;9.000;2023-05-23T11:41:00;95715.81;;;20.91;95.72
56038;BME280;41907;47.848;9.000;2023-05-23T11:43:26;95720.53;;;20.57;95.19
56038;BME280;41907;47.848;9.000;2023-05-23T11:45:51;95723.94;;;20.50;93.47
56038;BME280;41907;47.848;9.000;2023-05-23T11:48:16;95718.38;;;20.73;95.73
56038;BME280;41907;47.848;9.000;2023-05-23T11:50:42;95721.28;;;21.38;96.38
56038;BME280;41907;47.848;9.000;2023-05-23T11:53:07;95720.56;;;21.52;93.45
56038;BME280;41907;47.848;9.000;2023-05-23T11:55:33;95716.75;;;21.57;91.97
56038;BME280;41907;47.848;9.000;2023-05-23T11:57:59;95708.25;;;21.65;87.68
56038;BME280;41907;47.848;9.000;2023-05-23T12:00:24;95710.06;;;22.09;81.37
56038;BME280;41907;47.848;9.000;2023-05-23T12:02:49;95702.13;;;21.75;82.62
56038;BME280;41907;47.848;9.000;2023-05-23T12:05:15;95701.28;;;21.61;84.01
56038;BME280;41907;47.848;9.000;2023-05-23T12:07:43;95700.84;;;21.55;84.06
56038;BME280;41907;47.848;9.000;2023-05-23T12:10:09;95706.91;;;20.90;86.76
56038;BME280;41907;47.848;9.000;2023-05-23T12:12:34;95715.44;;;20.92;92.62
56038;BME280;41907;47.848;9.000;2023-05-23T12:15:00;95721.66;;;20.96;98.09
56038;BME280;41907;47.848;9.000;2023-05-23T12:17:25;95737.78;;;20.78;100.00
56038;BME280;41907;47.848;9.000;2023-05-23T12:19:51;95733.63;;;20.51;100.00
56038;BME280;41907;47.848;9.000;2023-05-23T12:22:21;95739.81;;;20.18;100.00
56038;BME280;41907;47.848;9.000;2023-05-23T12:24:47;95740.81;;;19.77;100.00
56038;BME280;41907;47.848;9.000;2023-05-23T12:27:12;95737.22;;;19.43;100.00
56038;BME280;41907;47.848;9.000;2023-05-23T12:29:37;95759.63;;;18.98;100.00
56038;BME280;41907;47.848;9.000;2023-05-23T12:32:03;95742.09;;;18.46;95.87
56038;BME280;41907;47.848;9.000;2023-05-23T12:34:29;95742.09;;;18.27;100.00
56038;BME280;41907;47.848;9.000;2023-05-23T12:36:55;95744.72;;;18.04;100.00
56038;BME280;41907;47.848;9.000;2023-05-23T12:39:24;95730.22;;;17.73;100.00
56038;BME280;41907;47.848;9.000;2023-05-23T12:41:51;95729.06;;;17.74;100.00
56038;BME280;41907;47.848;9.000;2023-05-23T12:44:16;95733.56;;;17.51;100.00
56038;BME280;41907;47.848;9.000;2023-05-23T12:46:41;95733.25;;;17.21;100.00
56038;BME280;41907;47.848;9.000;2023-05-23T12:49:07;95761.97;;;16.98;100.00
56038;BME280;41907;47.848;9.000;2023-05-23T12:51:32;95766.19;;;16.67;100.00
56038;BME280;41907;47.848;9.000;2023-05-23T12:53:57;95768.66;;;16.32;100.00
56038;BME280;41907;47.848;9.000;2023-05-23T12:56:23;95753.00;;;16.22;100.00
56038;BME280;41907;47.848;9.000;2023-05-23T12:58:48;95759.94;;;16.23;100.00
56038;BME280;41907;47.848;9.000;2023-05-23T13:01:13;95762.75;;;16.27;100.00
56038;BME280;41907;47.848;9.000;2023-05-23T13:03:39;95769.66;;;16.12;100.00